createdAt,value
2022-11-18T00:01:56.633Z,11.80
2022-11-18T00:04:26.213Z,11.80
2022-11-18T00:06:55.834Z,11.80
2022-11-18T00:09:25.387Z,11.80
2022-11-18T00:12:12.865Z,11.80
2022-11-18T00:14:42.370Z,11.70
2022-11-18T00:17:11.809Z,11.70
2022-11-18T00:19:42.001Z,11.70
2022-11-18T00:22:14.848Z,11.70
2022-11-18T00:24:44.311Z,11.70
2022-11-18T00:27:13.875Z,11.70
2022-11-18T00:29:43.581Z,11.70
2022-11-18T00:32:13.097Z,11.70
2022-11-18T00:34:43.822Z,11.60
2022-11-18T00:37:13.316Z,11.60
2022-11-18T00:39:42.985Z,11.60
2022-11-18T00:42:30.394Z,11.60
2022-11-18T00:44:59.873Z,11.50
2022-11-18T00:47:29.373Z,11.60
2022-11-18T00:49:59.007Z,11.60
2022-11-18T00:52:28.726Z,11.60
2022-11-18T00:54:58.325Z,11.50
2022-11-18T00:57:27.764Z,11.60
2022-11-18T00:59:57.348Z,11.60
2022-11-18T01:02:26.951Z,11.60
2022-11-18T01:04:56.407Z,11.50
2022-11-18T01:07:26.156Z,11.50
2022-11-18T01:09:57.700Z,11.40
2022-11-18T01:12:48.960Z,11.40
2022-11-18T01:15:16.572Z,11.40
2022-11-18T01:17:46.084Z,11.50
2022-11-18T01:20:17.072Z,11.50
2022-11-18T01:22:46.574Z,11.50
2022-11-18T01:25:16.152Z,11.50
2022-11-18T01:27:45.724Z,11.50
2022-11-18T01:30:17.072Z,11.50
2022-11-18T01:32:46.959Z,11.40
2022-11-18T01:35:16.604Z,11.40
2022-11-18T01:37:46.243Z,11.50
2022-11-18T01:40:16.118Z,11.50
2022-11-18T01:42:45.752Z,11.30
2022-11-18T01:45:33.104Z,11.40
2022-11-18T01:48:14.325Z,11.30
2022-11-18T01:50:49.472Z,11.40
2022-11-18T01:53:22.121Z,11.30
2022-11-18T01:55:55.022Z,11.40
2022-11-18T01:58:30.301Z,11.40
2022-11-18T02:01:00.567Z,11.40
2022-11-18T02:03:30.599Z,11.30
2022-11-18T02:06:02.546Z,11.20
2022-11-18T02:08:33.020Z,11.20
2022-11-18T02:11:02.559Z,11.30
2022-11-18T02:13:33.941Z,11.30
2022-11-18T02:16:18.669Z,11.30
2022-11-18T02:18:51.176Z,11.40
2022-11-18T02:21:32.656Z,11.40
2022-11-18T02:24:14.196Z,11.40
2022-11-18T02:27:02.083Z,11.60
2022-11-18T02:29:49.314Z,11.60
2022-11-18T02:32:27.429Z,11.50
2022-11-18T02:35:09.396Z,11.50
2022-11-18T02:37:50.970Z,11.50
2022-11-18T02:40:44.732Z,11.60
2022-11-18T02:43:29.403Z,11.70
2022-11-18T02:46:01.896Z,11.60
2022-11-18T02:48:34.803Z,11.50
2022-11-18T02:51:07.233Z,11.30
2022-11-18T02:53:39.455Z,11.30
2022-11-18T02:56:11.438Z,11.30
2022-11-18T02:58:41.082Z,11.30
2022-11-18T03:01:16.240Z,11.30
2022-11-18T03:03:46.360Z,11.30
2022-11-18T03:06:43.377Z,11.40
2022-11-18T03:09:27.659Z,11.20
2022-11-18T03:12:19.601Z,11.20
2022-11-18T03:15:14.124Z,11.20
2022-11-18T03:17:58.199Z,11.30
2022-11-18T03:20:30.719Z,11.20
2022-11-18T03:25:55.488Z,11.20
2022-11-18T03:28:46.138Z,11.20
2022-11-18T03:31:27.863Z,11.10
2022-11-18T03:34:03.038Z,11.10
2022-11-18T03:36:35.597Z,11.00
2022-11-18T03:39:06.158Z,10.90
2022-11-18T03:41:38.600Z,10.90
2022-11-18T03:44:11.165Z,10.90
2022-11-18T03:46:43.712Z,10.70
2022-11-18T03:49:16.624Z,10.80
2022-11-18T03:51:49.536Z,10.70
2022-11-18T03:54:24.707Z,10.70
2022-11-18T03:57:03.397Z,10.70
2022-11-18T03:59:41.587Z,10.80
2022-11-18T04:02:14.240Z,10.70
2022-11-18T04:04:46.836Z,10.80
2022-11-18T04:07:34.283Z,10.80
2022-11-18T04:10:07.298Z,10.70
2022-11-18T04:12:39.832Z,10.80
2022-11-18T04:15:10.206Z,10.70
2022-11-18T04:17:43.444Z,10.80
2022-11-18T04:20:19.160Z,10.70
2022-11-18T04:22:49.255Z,10.80
2022-11-18T04:25:18.741Z,10.70
2022-11-18T04:27:48.247Z,10.60
2022-11-18T04:30:18.238Z,10.60
2022-11-18T04:32:47.904Z,10.70
2022-11-18T04:35:17.463Z,10.60
2022-11-18T04:37:47.073Z,10.60
2022-11-18T04:40:16.822Z,10.70
2022-11-18T04:42:46.492Z,10.70
2022-11-18T04:45:16.613Z,10.70
2022-11-18T04:47:46.117Z,10.50
2022-11-18T04:50:15.680Z,10.60
2022-11-18T04:52:45.355Z,10.50
2022-11-18T04:55:14.928Z,10.40
2022-11-18T04:57:44.592Z,10.40
2022-11-18T05:00:14.390Z,10.50
2022-11-18T05:02:44.479Z,10.40
2022-11-18T05:05:14.122Z,10.50
2022-11-18T05:07:43.709Z,10.50
2022-11-18T05:10:13.870Z,10.50
2022-11-18T05:12:49.593Z,10.40
2022-11-18T05:15:21.575Z,10.50
2022-11-18T05:17:51.730Z,10.50
2022-11-18T05:20:21.611Z,10.50
2022-11-18T05:22:51.469Z,10.50
2022-11-18T05:25:21.130Z,10.40
2022-11-18T05:27:50.589Z,10.40
2022-11-18T05:30:20.184Z,10.40
2022-11-18T05:32:49.639Z,10.40
2022-11-18T05:35:19.232Z,10.40
2022-11-18T05:37:48.730Z,10.50
2022-11-18T05:40:18.877Z,10.40
2022-11-18T05:43:06.127Z,10.40
2022-11-18T05:45:35.560Z,10.50
2022-11-18T05:48:06.940Z,10.40
2022-11-18T05:50:39.503Z,10.40
2022-11-18T05:53:09.089Z,10.30
2022-11-18T05:55:47.257Z,10.40
2022-11-18T05:58:16.721Z,10.20
2022-11-18T06:00:48.701Z,10.30
2022-11-18T06:03:23.898Z,10.30
2022-11-18T06:05:57.917Z,10.20
2022-11-18T06:08:30.469Z,10.20
2022-11-18T06:11:00.546Z,10.20
2022-11-18T06:13:33.203Z,10.20
2022-11-18T06:16:03.702Z,10.20
2022-11-18T06:18:36.074Z,10.30
2022-11-18T06:21:07.428Z,10.30
2022-11-18T06:23:38.636Z,10.30
2022-11-18T06:26:10.101Z,10.30
2022-11-18T06:28:41.162Z,10.20
2022-11-18T06:31:10.699Z,10.20
2022-11-18T06:33:40.276Z,10.10
2022-11-18T06:36:11.373Z,10.20
2022-11-18T06:38:40.943Z,10.10
2022-11-18T06:41:10.833Z,10.10
2022-11-18T06:43:42.064Z,10.20
2022-11-18T06:46:35.370Z,10.10
2022-11-18T06:49:05.185Z,10.10
2022-11-18T06:51:34.787Z,10.10
2022-11-18T06:54:10.241Z,10.10
2022-11-18T06:56:36.830Z,10.20
2022-11-18T06:59:06.691Z,10.30
2022-11-18T07:01:38.735Z,10.30
2022-11-18T07:04:08.372Z,10.30
2022-11-18T07:06:38.088Z,10.30
2022-11-18T07:09:08.559Z,10.20
2022-11-18T07:11:40.220Z,10.30
2022-11-18T07:14:11.091Z,10.30
2022-11-18T07:16:40.821Z,10.40
2022-11-18T07:19:12.380Z,10.40
2022-11-18T07:21:43.369Z,10.50
2022-11-18T07:24:15.634Z,10.50
2022-11-18T07:26:45.237Z,10.60
2022-11-18T07:29:14.750Z,10.60
2022-11-18T07:31:44.332Z,10.60
2022-11-18T07:34:14.706Z,10.60
2022-11-18T07:36:44.306Z,10.60
2022-11-18T07:39:14.017Z,10.60
2022-11-18T07:41:43.543Z,10.70
2022-11-18T07:44:13.780Z,10.60
2022-11-18T07:46:43.381Z,10.60
2022-11-18T07:49:12.963Z,10.60
2022-11-18T07:51:43.502Z,10.60
2022-11-18T07:54:17.388Z,10.60
2022-11-18T07:56:46.967Z,10.50
2022-11-18T07:59:16.872Z,10.60
2022-11-18T08:01:46.779Z,10.60
2022-11-18T08:04:17.958Z,10.60
2022-11-18T08:06:47.554Z,10.70
2022-11-18T08:09:17.377Z,10.60
2022-11-18T08:11:47.524Z,10.70
2022-11-18T08:14:16.986Z,10.90
2022-11-18T08:16:46.505Z,10.90
2022-11-18T08:19:16.503Z,10.90
2022-11-18T08:21:46.301Z,11.00
2022-11-18T08:24:15.838Z,11.00
2022-11-18T08:26:45.538Z,11.10
2022-11-18T08:29:17.859Z,11.20
2022-11-18T08:31:46.192Z,11.40
2022-11-18T08:34:16.666Z,11.40
2022-11-18T08:36:46.512Z,11.50
2022-11-18T08:39:16.709Z,11.80
2022-11-18T08:41:47.531Z,12.00
2022-11-18T08:44:18.014Z,12.10
2022-11-18T08:46:47.697Z,12.30
2022-11-18T08:49:17.627Z,12.30
2022-11-18T08:51:47.270Z,12.50
2022-11-18T08:54:16.769Z,12.80
2022-11-18T08:56:46.748Z,13.00
2022-11-18T08:59:17.141Z,13.20
2022-11-18T09:01:47.219Z,13.30
2022-11-18T09:04:16.849Z,13.70
2022-11-18T09:06:46.359Z,14.10
2022-11-18T09:09:16.517Z,14.40
2022-11-18T09:11:46.192Z,13.80
2022-11-18T09:16:46.977Z,14.10
2022-11-18T09:19:46.877Z,13.90
2022-11-18T09:21:50.052Z,14.00
2022-11-18T09:24:20.113Z,14.30
2022-11-18T09:26:50.369Z,14.50
2022-11-18T09:29:21.609Z,14.40
2022-11-18T09:31:51.193Z,14.80
2022-11-18T09:34:20.827Z,15.00
2022-11-18T09:36:50.619Z,14.80
2022-11-18T09:39:20.478Z,15.80
2022-11-18T09:41:56.495Z,16.30
2022-11-18T09:44:51.819Z,15.90
2022-11-18T09:47:32.977Z,16.00
2022-11-18T09:50:33.974Z,15.60
2022-11-18T09:52:42.233Z,15.40
2022-11-18T09:55:19.772Z,14.80
2022-11-18T09:57:55.119Z,14.70
2022-11-18T10:00:31.257Z,14.90
2022-11-18T10:03:06.871Z,14.90
2022-11-18T10:06:07.650Z,14.70
2022-11-18T10:09:06.038Z,14.50
2022-11-18T10:12:01.979Z,14.90
2022-11-18T10:14:49.596Z,15.10
2022-11-18T10:17:24.933Z,14.90
2022-11-18T10:20:05.985Z,14.80
2022-11-18T10:22:44.526Z,14.70
2022-11-18T10:25:17.292Z,14.60
2022-11-18T10:27:49.876Z,14.80
2022-11-18T10:30:24.758Z,14.60
2022-11-18T10:33:03.317Z,15.00
2022-11-18T10:35:38.208Z,14.90
2022-11-18T10:38:21.683Z,15.00
2022-11-18T10:40:59.918Z,15.00
2022-11-18T10:43:57.950Z,15.10
2022-11-18T10:46:29.915Z,15.40
2022-11-18T10:49:16.798Z,15.10
2022-11-18T10:52:12.018Z,15.00
2022-11-18T10:54:43.409Z,14.80
2022-11-18T10:57:22.078Z,14.70
2022-11-18T10:59:54.603Z,14.60
2022-11-18T11:02:42.761Z,14.60
2022-11-18T11:05:23.970Z,14.40
2022-11-18T11:08:35.110Z,14.40
2022-11-18T11:10:39.820Z,14.20
2022-11-18T11:13:15.331Z,14.20
2022-11-18T11:15:47.938Z,14.30
2022-11-18T11:18:45.080Z,14.60
2022-11-18T11:21:20.080Z,14.60
2022-11-18T11:23:50.074Z,14.80
2022-11-18T11:29:21.977Z,15.40
2022-11-18T11:32:09.353Z,15.10
2022-11-18T11:34:50.759Z,15.10
2022-11-18T11:37:35.353Z,15.00
2022-11-18T11:40:07.863Z,15.20
2022-11-18T11:42:52.578Z,15.50
2022-11-18T11:45:37.340Z,16.00
2022-11-18T11:48:18.801Z,16.10
2022-11-18T11:51:04.321Z,16.00
2022-11-18T11:54:08.318Z,15.90
2022-11-18T11:56:49.805Z,15.70
2022-11-18T11:59:31.522Z,15.80
2022-11-18T12:02:35.909Z,15.70
2022-11-18T12:05:20.470Z,15.50
2022-11-18T12:07:58.741Z,15.30
2022-11-18T12:10:31.946Z,15.60
2022-11-18T12:13:23.921Z,15.40
2022-11-18T12:16:16.333Z,15.00
2022-11-18T12:18:54.978Z,15.10
2022-11-18T12:21:47.469Z,15.20
2022-11-18T12:24:25.743Z,15.20
2022-11-18T12:26:57.423Z,15.30
2022-11-18T12:29:30.180Z,15.50
2022-11-18T12:32:02.658Z,15.40
2022-11-18T12:34:40.947Z,15.40
2022-11-18T12:37:25.613Z,15.30
2022-11-18T12:40:00.804Z,15.20
2022-11-18T12:43:03.626Z,15.00
2022-11-18T12:45:46.122Z,14.80
2022-11-18T12:48:34.163Z,14.70
2022-11-18T12:51:21.463Z,14.70
2022-11-18T12:53:52.326Z,14.60
2022-11-18T12:56:24.168Z,14.70
2022-11-18T12:58:57.660Z,14.70
2022-11-18T13:01:30.921Z,14.70
2022-11-18T13:04:12.237Z,14.60
2022-11-18T13:06:42.500Z,14.50
2022-11-18T13:09:18.250Z,14.30
2022-11-18T13:11:51.122Z,14.40
2022-11-18T13:14:48.248Z,14.30
2022-11-18T13:17:58.694Z,14.40
2022-11-18T13:20:35.811Z,14.30
2022-11-18T13:23:32.445Z,14.20
2022-11-18T13:26:08.109Z,14.10
2022-11-18T13:28:46.648Z,14.10
2022-11-18T13:31:37.351Z,14.10
2022-11-18T13:34:15.671Z,14.10
2022-11-18T13:36:47.474Z,14.20
2022-11-18T13:39:25.125Z,14.20
2022-11-18T13:42:06.845Z,14.20
2022-11-18T13:44:39.113Z,14.10
2022-11-18T13:47:29.684Z,14.00
2022-11-18T13:50:30.858Z,14.00
2022-11-18T13:53:12.646Z,13.90
2022-11-18T13:55:50.928Z,13.90
2022-11-18T13:58:29.368Z,13.70
2022-11-18T14:01:01.713Z,13.70
2022-11-18T14:03:55.178Z,13.80
2022-11-18T14:06:36.679Z,13.80
2022-11-18T14:09:26.091Z,13.80
2022-11-18T14:12:14.998Z,13.80
2022-11-18T14:14:45.633Z,13.90
2022-11-18T14:17:20.902Z,13.90
2022-11-18T14:19:53.164Z,13.80
2022-11-18T14:22:27.951Z,13.80
2022-11-18T14:25:06.518Z,13.90
2022-11-18T14:27:48.716Z,13.80
2022-11-18T14:30:42.609Z,13.70
2022-11-18T14:33:15.962Z,13.60
2022-11-18T14:36:03.868Z,13.60
2022-11-18T14:39:11.443Z,13.70
2022-11-18T14:41:23.467Z,13.60
2022-11-18T14:43:52.909Z,13.60
2022-11-18T14:46:22.353Z,13.60
2022-11-18T14:48:51.970Z,13.50
2022-11-18T14:51:21.663Z,13.50
2022-11-18T14:53:51.137Z,13.60
2022-11-18T14:56:23.753Z,13.60
2022-11-18T14:58:53.261Z,13.40
2022-11-18T15:01:29.296Z,13.30
2022-11-18T15:03:56.882Z,13.30
2022-11-18T15:06:27.085Z,13.30
2022-11-18T15:08:56.680Z,13.20
2022-11-18T15:11:26.184Z,13.20
2022-11-18T15:13:55.788Z,13.10
2022-11-18T15:16:28.233Z,13.10
2022-11-18T15:19:03.336Z,13.20
2022-11-18T15:21:34.282Z,13.10
2022-11-18T15:24:03.876Z,13.00
2022-11-18T15:26:39.533Z,12.90
2022-11-18T15:29:14.808Z,13.00
2022-11-18T15:31:44.474Z,13.00
2022-11-18T15:34:14.451Z,13.00
2022-11-18T15:36:44.411Z,13.00
2022-11-18T15:39:14.902Z,12.90
2022-11-18T15:41:44.793Z,12.90
2022-11-18T15:44:14.314Z,13.00
2022-11-18T15:46:45.579Z,13.00
2022-11-18T15:49:17.935Z,12.90
2022-11-18T15:51:47.674Z,12.80
2022-11-18T15:54:17.540Z,12.80
2022-11-18T15:56:47.637Z,12.80
2022-11-18T15:59:18.104Z,12.70
2022-11-18T16:01:50.156Z,12.60
2022-11-18T16:04:20.244Z,12.50
2022-11-18T16:06:50.704Z,12.40
2022-11-18T16:09:20.582Z,12.40
2022-11-18T16:12:08.667Z,12.40
2022-11-18T16:14:40.042Z,12.40
2022-11-18T16:17:09.683Z,12.30
2022-11-18T16:19:40.712Z,12.30
2022-11-18T16:22:10.479Z,12.30
2022-11-18T16:24:42.951Z,12.20
2022-11-18T16:27:11.192Z,12.10
2022-11-18T16:29:40.634Z,12.00
2022-11-18T16:32:13.254Z,12.10
2022-11-18T16:34:42.762Z,12.20
2022-11-18T16:37:12.321Z,12.10
2022-11-18T16:39:41.817Z,12.10
2022-11-18T16:42:12.936Z,11.90
2022-11-18T16:44:43.925Z,11.90
2022-11-18T16:47:15.153Z,11.80
2022-11-18T16:49:45.468Z,11.80
2022-11-18T16:52:15.038Z,11.70
2022-11-18T16:54:45.925Z,11.70
2022-11-18T16:57:16.573Z,11.70
2022-11-18T16:59:46.054Z,11.70
2022-11-18T17:02:16.411Z,11.70
2022-11-18T17:04:46.128Z,11.50
2022-11-18T17:07:15.850Z,11.60
2022-11-18T17:09:45.407Z,11.60
2022-11-18T17:12:14.937Z,11.70
2022-11-18T17:14:44.351Z,11.60
2022-11-18T17:17:13.821Z,11.70
2022-11-18T17:19:43.230Z,11.70
2022-11-18T17:22:12.891Z,11.60
2022-11-18T17:24:42.396Z,11.60
2022-11-18T17:27:12.327Z,11.60
2022-11-18T17:29:41.839Z,11.50
2022-11-18T17:32:11.999Z,11.50
2022-11-18T17:37:07.103Z,11.50
2022-11-18T17:39:35.804Z,11.40
2022-11-18T17:42:14.630Z,11.40
2022-11-18T17:44:44.734Z,11.40
2022-11-18T17:47:14.306Z,11.20
2022-11-18T17:49:43.915Z,11.20
2022-11-18T17:52:13.457Z,11.20
2022-11-18T17:54:43.046Z,11.20
2022-11-18T17:57:13.129Z,11.30
2022-11-18T17:59:42.704Z,11.30
2022-11-18T18:02:14.131Z,11.30
2022-11-18T18:04:43.755Z,11.20
2022-11-18T18:07:13.282Z,11.20
2022-11-18T18:09:43.027Z,11.20
2022-11-18T18:12:30.392Z,11.20
2022-11-18T18:14:59.859Z,11.20
2022-11-18T18:17:29.278Z,11.20
2022-11-18T18:19:59.258Z,11.30
2022-11-18T18:22:28.698Z,11.20
2022-11-18T18:24:58.203Z,11.20
2022-11-18T18:27:27.623Z,11.20
2022-11-18T18:29:57.205Z,11.20
2022-11-18T18:32:26.816Z,11.20
2022-11-18T18:34:56.338Z,11.10
2022-11-18T18:37:25.916Z,11.20
2022-11-18T18:39:55.597Z,11.20
2022-11-18T18:42:25.009Z,11.20
2022-11-18T18:45:12.586Z,11.10
2022-11-18T18:47:42.779Z,11.00
2022-11-18T18:50:12.829Z,11.00
2022-11-18T18:52:42.314Z,11.00
2022-11-18T18:55:12.134Z,10.90
2022-11-18T18:57:41.554Z,10.90
2022-11-18T19:00:12.487Z,10.90
2022-11-18T19:02:42.141Z,10.90
2022-11-18T19:05:11.658Z,10.90
2022-11-18T19:07:43.786Z,10.80
2022-11-18T19:10:13.352Z,10.80
2022-11-18T19:12:46.940Z,10.80
2022-11-18T19:15:16.798Z,10.80
2022-11-18T19:17:47.845Z,10.70
2022-11-18T19:20:36.867Z,10.80
2022-11-18T19:23:10.449Z,10.80
2022-11-18T19:25:39.779Z,10.90
2022-11-18T19:28:11.551Z,10.90
2022-11-18T19:30:41.244Z,10.80
2022-11-18T19:33:11.820Z,10.90
2022-11-18T19:35:41.509Z,10.90
2022-11-18T19:38:11.005Z,10.80
2022-11-18T19:40:40.527Z,10.80
2022-11-18T19:43:10.045Z,10.70
2022-11-18T19:45:39.558Z,10.70
2022-11-18T19:48:09.078Z,10.80
2022-11-18T19:50:38.822Z,10.70
2022-11-18T19:53:09.891Z,10.70
2022-11-18T19:55:39.433Z,10.60
2022-11-18T19:58:08.867Z,10.60
2022-11-18T20:00:38.531Z,10.70
2022-11-18T20:03:08.191Z,10.80
2022-11-18T20:05:52.878Z,10.70
2022-11-18T20:08:26.116Z,10.80
2022-11-18T20:10:56.240Z,10.80
2022-11-18T20:13:25.692Z,10.70
2022-11-18T20:16:11.040Z,10.60
2022-11-18T20:18:40.778Z,10.70
2022-11-18T20:21:18.116Z,10.60
2022-11-18T20:23:50.079Z,10.60
2022-11-18T20:26:21.861Z,10.60
2022-11-18T20:28:57.210Z,10.50
2022-11-18T20:31:24.105Z,10.40
2022-11-18T20:33:55.805Z,10.40
2022-11-18T20:36:28.197Z,10.40
2022-11-18T20:38:59.931Z,10.40
2022-11-18T20:41:31.180Z,10.30
2022-11-18T20:44:01.802Z,10.40
2022-11-18T20:46:31.370Z,10.30
2022-11-18T20:49:02.015Z,10.30
2022-11-18T20:51:32.270Z,10.40
2022-11-18T20:54:03.004Z,10.30
2022-11-18T20:56:32.494Z,10.40
2022-11-18T20:59:03.084Z,10.40
2022-11-18T21:01:33.997Z,10.30
2022-11-18T21:04:04.580Z,10.30
2022-11-18T21:06:34.829Z,10.20
2022-11-18T21:09:06.884Z,10.20
2022-11-18T21:11:38.056Z,10.30
2022-11-18T21:14:25.402Z,10.20
2022-11-18T21:16:55.463Z,10.20
2022-11-18T21:19:26.724Z,10.10
2022-11-18T21:21:57.557Z,10.10
2022-11-18T21:24:32.255Z,10.10
2022-11-18T21:27:03.726Z,10.20
2022-11-18T21:29:34.976Z,10.30
2022-11-18T21:32:04.474Z,10.30
2022-11-18T21:34:33.979Z,10.40
2022-11-18T21:37:05.405Z,10.40
2022-11-18T21:39:35.070Z,10.30
2022-11-18T21:42:05.329Z,10.30
2022-11-18T21:44:34.878Z,10.30
2022-11-18T21:47:04.400Z,10.40
2022-11-18T21:49:34.354Z,10.30
2022-11-18T21:52:03.925Z,10.20
2022-11-18T21:54:35.372Z,10.30
2022-11-18T21:57:04.960Z,10.30
2022-11-18T21:59:34.552Z,10.20
2022-11-18T22:02:04.391Z,10.00
2022-11-18T22:04:51.613Z,10.00
2022-11-18T22:07:22.201Z,10.20
2022-11-18T22:09:54.736Z,10.20
2022-11-18T22:12:24.309Z,10.20
2022-11-18T22:14:53.801Z,10.20
2022-11-18T22:17:23.383Z,10.10
2022-11-18T22:19:52.931Z,10.20
2022-11-18T22:22:22.437Z,10.20
2022-11-18T22:24:51.953Z,10.10
2022-11-18T22:27:21.500Z,10.20
2022-11-18T22:29:51.001Z,10.20
2022-11-18T22:32:21.192Z,10.10
2022-11-18T22:34:51.902Z,10.10
2022-11-18T22:37:21.684Z,10.10
2022-11-18T22:39:51.182Z,10.00
2022-11-18T22:42:38.295Z,10.00
2022-11-18T22:45:09.187Z,10.10
2022-11-18T22:47:38.698Z,10.10
2022-11-18T22:50:08.378Z,10.00
2022-11-18T22:52:37.910Z,10.10
2022-11-18T22:55:07.569Z,10.00
2022-11-18T22:57:37.136Z,9.90
2022-11-18T23:00:09.808Z,9.90
2022-11-18T23:02:39.397Z,10.00
2022-11-18T23:05:10.656Z,9.90
2022-11-18T23:07:40.318Z,9.90
2022-11-18T23:10:10.798Z,9.90
2022-11-18T23:12:47.669Z,9.90
2022-11-18T23:15:15.918Z,9.80
2022-11-18T23:17:45.475Z,9.80
2022-11-18T23:20:15.112Z,9.90
2022-11-18T23:22:45.060Z,10.00
2022-11-18T23:25:14.619Z,9.90
2022-11-18T23:27:44.159Z,9.90
2022-11-18T23:30:14.446Z,9.80
2022-11-18T23:32:43.889Z,9.80
2022-11-18T23:35:13.534Z,9.60
2022-11-18T23:37:43.074Z,9.70
2022-11-18T23:40:13.937Z,9.70
2022-11-18T23:42:43.448Z,9.70
2022-11-18T23:45:12.922Z,9.70
2022-11-18T23:47:42.442Z,9.70
2022-11-18T23:50:11.990Z,9.60
2022-11-18T23:52:43.282Z,9.60
2022-11-18T23:55:12.867Z,9.60
2022-11-18T23:57:42.362Z,9.50
